Time;durP1;ratioP1;P1;durP2;ratioP2;P2;SDS_P1;SDS_P2;PMS_P1;PMS_P2;Temp;Humidity;BMP_temperature;BMP_pressure;BME280_temperature;BME280_humidity;BME280_pressure;Samples;Min_cycle;Max_cycle;Signal;HPM_P1;HPM_P2
2023/10/25 00:01:02;;;;;;;;;10.80;10.60;;;;;19.16;39.61;98232.88;5068626;28;8867;-71
2023/10/25 00:03:36;;;;;;;;;10.60;10.60;;;;;19.07;40.49;98224.66;5067579;28;8967;-73
2023/10/25 00:06:05;;;;;;;;;14.00;13.20;;;;;18.91;40.85;98213.47;5033713;28;8862;-72
2023/10/25 00:08:35;;;;;;;;;13.60;10.60;;;;;18.83;40.98;98218.53;5066342;28;8868;-71
2023/10/25 00:11:05;;;;;;;;;14.60;12.40;;;;;18.74;41.21;98217.38;5048695;28;8877;-70
2023/10/25 00:13:35;;;;;;;;;18.60;12.60;;;;;18.71;40.78;98213.16;5048474;28;8872;-71
2023/10/25 00:16:05;;;;;;;;;12.60;10.60;;;;;18.61;40.98;98206.84;5040363;28;8854;-71
2023/10/25 00:18:34;;;;;;;;;10.40;9.80;;;;;18.55;40.92;98207.28;5033217;28;8870;-69
2023/10/25 00:21:04;;;;;;;;;12.80;12.00;;;;;18.47;40.71;98194.56;5068445;28;8877;-72
2023/10/25 00:23:33;;;;;;;;;14.20;11.80;;;;;18.46;40.62;98186.69;5067956;28;8950;-71
2023/10/25 00:26:02;;;;;;;;;13.60;12.60;;;;;18.39;40.68;98178.34;5066897;28;8850;-72
2023/10/25 00:28:30;;;;;;;;;15.00;12.60;;;;;18.38;40.60;98178.44;5083960;28;8943;-71
2023/10/25 00:31:00;;;;;;;;;12.80;12.60;;;;;18.35;40.50;98179.53;5043992;28;8943;-71
2023/10/25 00:33:29;;;;;;;;;11.40;9.60;;;;;18.30;40.38;98169.22;5067690;28;8964;-72
2023/10/25 00:35:58;;;;;;;;;16.00;11.20;;;;;18.26;40.34;98175.75;5049927;28;8951;-71
2023/10/25 00:38:28;;;;;;;;;14.60;14.60;;;;;18.37;40.11;98174.09;5085702;28;8958;-71
2023/10/25 00:40:57;;;;;;;;;16.40;12.60;;;;;18.33;40.10;98184.97;5084069;28;8857;-71
2023/10/25 00:43:25;;;;;;;;;17.80;17.00;;;;;18.26;40.28;98191.69;5068793;28;8949;-71
2023/10/25 00:46:03;;;;;;;;;11.20;9.00;;;;;18.35;40.54;98185.69;5085435;28;8996;-70
2023/10/25 00:48:32;;;;;;;;;19.00;16.80;;;;;18.31;40.73;98176.25;5068450;28;8881;-72
2023/10/25 00:51:01;;;;;;;;;20.80;15.60;;;;;18.31;40.68;98178.91;5068746;28;8878;-73
2023/10/25 00:53:34;;;;;;;;;17.40;16.60;;;;;18.43;40.17;98165.66;5085604;28;8896;-72
2023/10/25 00:56:03;;;;;;;;;18.40;14.60;;;;;18.44;40.16;98168.19;5084137;28;8856;-72
2023/10/25 00:58:33;;;;;;;;;14.40;12.60;;;;;18.43;39.93;98163.00;5085368;28;9000;-72
2023/10/25 01:01:03;;;;;;;;;16.60;14.20;;;;;18.55;39.65;98162.03;5045716;28;8865;-71
2023/10/25 01:03:32;;;;;;;;;17.40;14.20;;;;;18.53;39.63;98153.34;5034823;28;8934;-72
2023/10/25 01:06:03;;;;;;;;;10.80;10.80;;;;;18.49;39.82;98144.72;5085308;28;9077;-72
2023/10/25 01:08:34;;;;;;;;;16.00;13.60;;;;;18.53;39.70;98143.56;5084466;28;8845;-72
2023/10/25 01:11:04;;;;;;;;;14.00;11.00;;;;;18.55;39.95;98138.09;5027578;28;8855;-72
2023/10/25 01:13:33;;;;;;;;;10.60;10.60;;;;;18.54;39.73;98131.09;5067672;28;8850;-73
2023/10/25 01:16:02;;;;;;;;;13.00;12.60;;;;;18.49;39.45;98139.41;5066763;28;8847;-71
2023/10/25 01:18:31;;;;;;;;;12.20;11.00;;;;;18.47;39.61;98133.34;5082917;28;8992;-72
2023/10/25 01:21:00;;;;;;;;;14.80;11.00;;;;;18.63;39.07;98129.53;5067740;28;9069;-72
2023/10/25 01:23:31;;;;;;;;;10.00;9.20;;;;;18.74;38.48;98125.09;5066846;28;8870;-70
2023/10/25 01:26:00;;;;;;;;;9.20;7.80;;;;;18.80;38.10;98117.59;5082047;28;8885;-71
2023/10/25 01:28:29;;;;;;;;;15.00;11.20;;;;;18.91;37.74;98107.84;5020360;28;8955;-70
2023/10/25 01:30:58;;;;;;;;;13.60;12.20;;;;;19.02;37.05;98114.13;5083169;28;8846;-71
2023/10/25 01:33:26;;;;;;;;;16.00;10.80;;;;;19.06;36.98;98104.91;5066503;28;8862;-70
2023/10/25 01:35:55;;;;;;;;;14.60;11.60;;;;;19.16;36.89;98113.00;5068608;28;8881;-72
2023/10/25 01:38:24;;;;;;;;;12.60;10.20;;;;;19.28;36.78;98112.06;5035949;28;8874;-70
2023/10/25 01:40:55;;;;;;;;;10.60;10.00;;;;;19.38;36.77;98122.81;5085906;28;8843;-71
2023/10/25 01:43:24;;;;;;;;;10.20;8.80;;;;;19.31;36.29;98115.31;5067903;28;8963;-72
2023/10/25 01:45:53;;;;;;;;;14.00;11.60;;;;;19.24;36.05;98111.44;5061906;28;8835;-72
2023/10/25 01:48:22;;;;;;;;;11.40;10.40;;;;;19.41;35.70;98107.44;5069968;28;9635;-71
2023/10/25 01:50:53;;;;;;;;;12.80;10.00;;;;;19.43;35.30;98107.31;5071565;28;8847;-71
2023/10/25 01:53:22;;;;;;;;;11.00;8.80;;;;;19.20;34.81;98109.16;5071436;28;8846;-71
2023/10/25 01:55:53;;;;;;;;;11.80;8.60;;;;;19.00;34.40;98111.56;5051991;28;8862;-71
2023/10/25 01:58:23;;;;;;;;;8.80;6.80;;;;;18.98;34.68;98102.84;5064050;28;8957;-70
2023/10/25 02:00:52;;;;;;;;;11.20;9.00;;;;;19.03;34.08;98094.50;5051100;28;8865;-71
2023/10/25 02:03:21;;;;;;;;;9.40;7.60;;;;;18.88;34.54;98093.91;5066483;28;8833;-70
2023/10/25 02:05:50;;;;;;;;;10.80;9.00;;;;;18.92;34.30;98096.19;5076121;28;8866;-71
2023/10/25 02:08:19;;;;;;;;;12.40;9.60;;;;;19.00;34.49;98090.25;5069619;28;8838;-71
2023/10/25 02:10:48;;;;;;;;;8.40;7.80;;;;;18.91;34.39;98096.31;5086332;28;8850;-72
2023/10/25 02:13:17;;;;;;;;;9.00;7.20;;;;;18.94;34.41;98098.75;5069707;28;8866;-70
2023/10/25 02:15:48;;;;;;;;;9.60;7.60;;;;;19.00;34.35;98094.75;5052121;28;8889;-72
2023/10/25 02:18:17;;;;;;;;;7.40;6.00;;;;;19.04;34.35;98105.03;5069514;28;8882;-71
2023/10/25 02:20:46;;;;;;;;;9.80;6.20;;;;;18.98;34.56;98112.66;5083686;28;8923;-70
2023/10/25 02:23:15;;;;;;;;;12.20;7.40;;;;;19.23;34.20;98122.22;5069668;28;9639;-70
2023/10/25 02:25:44;;;;;;;;;8.60;6.80;;;;;19.38;34.38;98147.63;5069242;28;8975;-70
2023/10/25 02:28:12;;;;;;;;;10.20;8.20;;;;;19.49;35.05;98160.09;5069297;28;8850;-69
2023/10/25 02:30:41;;;;;;;;;9.00;6.60;;;;;19.43;36.42;98169.44;5069148;28;8854;-71
2023/10/25 02:33:12;;;;;;;;;12.00;9.20;;;;;19.12;37.35;98157.69;5069159;28;8963;-71
2023/10/25 02:35:41;;;;;;;;;10.20;7.80;;;;;19.06;38.51;98163.50;5070148;28;8893;-72
2023/10/25 02:38:09;;;;;;;;;14.80;8.60;;;;;18.96;39.16;98163.38;5069189;28;8861;-72
2023/10/25 02:40:38;;;;;;;;;7.60;5.00;;;;;19.01;40.08;98165.69;5085878;28;8862;-72
2023/10/25 02:43:07;;;;;;;;;8.60;6.80;;;;;19.02;40.63;98168.22;5067809;28;8842;-71
2023/10/25 02:45:36;;;;;;;;;9.80;7.20;;;;;18.85;42.26;98166.84;5068833;28;9596;-71
2023/10/25 02:48:11;;;;;;;;;4.20;4.20;;;;;19.01;42.87;98155.88;5038866;28;8975;-70
2023/10/25 02:50:41;;;;;;;;;7.40;5.40;;;;;18.90;44.50;98155.88;5034761;28;8893;-70
2023/10/25 02:53:10;;;;;;;;;8.40;4.80;;;;;18.45;47.50;98153.06;5068720;28;8975;-71
2023/10/25 02:55:39;;;;;;;;;6.80;4.40;;;;;18.67;47.77;98150.47;5085913;28;8861;-72
2023/10/25 02:58:08;;;;;;;;;7.40;6.20;;;;;18.46;48.83;98138.78;5067466;28;8870;-72
2023/10/25 03:00:37;;;;;;;;;9.00;3.80;;;;;18.53;48.93;98132.91;5033831;28;8875;-69
2023/10/25 03:03:06;;;;;;;;;6.00;4.00;;;;;18.40;49.30;98136.59;5069799;28;8838;-71
2023/10/25 03:05:35;;;;;;;;;5.80;5.60;;;;;18.34;49.34;98146.75;5067471;28;8854;-72
2023/10/25 03:08:05;;;;;;;;;7.00;3.60;;;;;18.32;49.50;98147.81;5085453;28;9681;-71
2023/10/25 03:10:34;;;;;;;;;5.20;5.20;;;;;18.43;49.33;98178.94;5069830;28;8850;-71
2023/10/25 03:13:03;;;;;;;;;5.40;4.40;;;;;18.21;50.49;98190.34;5068393;28;8888;-71
2023/10/25 03:15:32;;;;;;;;;7.00;6.60;;;;;17.53;51.83;98208.50;5070008;28;8873;-70
2023/10/25 03:18:02;;;;;;;;;4.00;3.00;;;;;17.43;53.47;98210.13;5069541;28;8854;-71
2023/10/25 03:20:33;;;;;;;;;7.40;7.40;;;;;17.76;52.18;98239.63;5068431;28;8984;-71
2023/10/25 03:23:01;;;;;;;;;8.40;6.60;;;;;16.73;56.43;98301.59;5069342;28;9740;-71
2023/10/25 03:25:32;;;;;;;;;9.00;5.40;;;;;15.93;58.53;98291.66;5067913;28;8850;-70
2023/10/25 03:28:01;;;;;;;;;1.20;1.20;;;;;15.62;60.52;98276.81;5069543;28;8908;-70
2023/10/25 03:30:30;;;;;;;;;8.20;4.80;;;;;15.45;62.13;98297.22;5069286;28;8842;-67
2023/10/25 03:32:58;;;;;;;;;7.80;7.00;;;;;15.68;61.58;98280.88;5069297;28;8870;-69
2023/10/25 03:35:28;;;;;;;;;22.00;19.20;;;;;16.03;60.42;98282.16;5068130;28;8873;-71
2023/10/25 03:37:56;;;;;;;;;8.60;6.80;;;;;15.96;60.40;98304.72;5067846;28;8874;-69
2023/10/25 03:40:25;;;;;;;;;8.60;7.80;;;;;16.31;59.04;98309.56;5069450;28;8854;-72
2023/10/25 03:42:56;;;;;;;;;6.40;6.40;;;;;16.60;59.27;98310.34;5067877;28;8870;-70
2023/10/25 03:45:25;;;;;;;;;8.40;6.20;;;;;16.80;59.13;98303.72;5034379;28;8846;-69
2023/10/25 03:47:54;;;;;;;;;9.40;7.00;;;;;16.97;59.32;98301.75;5068956;28;8842;-71
2023/10/25 03:50:23;;;;;;;;;10.20;9.20;;;;;17.04;58.21;98318.09;5067725;28;8851;-71
2023/10/25 03:52:53;;;;;;;;;7.60;7.60;;;;;16.58;58.40;98322.84;5050598;28;8843;-70
2023/10/25 03:55:22;;;;;;;;;14.60;12.40;;;;;16.27;59.84;98331.09;5068892;28;8888;-69
2023/10/25 03:57:51;;;;;;;;;10.60;8.40;;;;;15.79;61.22;98350.81;5083882;28;8851;-70
2023/10/25 04:00:22;;;;;;;;;10.60;9.00;;;;;15.04;69.67;98353.50;5067454;28;8977;-68
2023/10/25 04:02:50;;;;;;;;;10.20;9.20;;;;;14.81;69.33;98354.84;5067221;28;8854;-70
2023/10/25 04:05:20;;;;;;;;;13.60;8.60;;;;;14.31;68.15;98384.09;5068831;28;8858;-71
2023/10/25 04:07:51;;;;;;;;;9.00;7.60;;;;;13.92;70.47;98423.13;5068498;28;8838;-69
2023/10/25 04:10:20;;;;;;;;;11.00;7.80;;;;;13.30;78.84;98404.31;5067412;28;8850;-75
2023/10/25 04:12:49;;;;;;;;;10.60;10.20;;;;;12.76;81.38;98443.81;5068509;28;8894;-78
2023/10/25 04:15:18;;;;;;;;;10.20;9.40;;;;;12.46;85.27;98441.69;5069039;28;8946;-79
2023/10/25 04:17:48;;;;;;;;;11.60;10.00;;;;;12.19;86.97;98432.44;5067459;28;8984;-77
2023/10/25 04:20:17;;;;;;;;;10.40;10.00;;;;;12.21;89.29;98434.06;5084181;28;8898;-79
2023/10/25 04:22:46;;;;;;;;;8.80;8.80;;;;;12.30;90.68;98420.47;5068601;28;8932;-79
2023/10/25 04:25:15;;;;;;;;;14.20;11.20;;;;;12.73;89.14;98423.75;5033278;28;8988;-79
2023/10/25 04:27:44;;;;;;;;;13.00;8.40;;;;;12.51;87.91;98409.88;5068407;28;8882;-78
2023/10/25 04:30:13;;;;;;;;;6.20;6.00;;;;;12.64;87.45;98408.34;5033386;28;8850;-78
2023/10/25 04:32:42;;;;;;;;;5.40;3.00;;;;;12.49;87.18;98403.81;5066990;28;9734;-77
2023/10/25 04:35:13;;;;;;;;;8.80;6.20;;;;;12.42;87.74;98405.03;5033465;28;8862;-77
2023/10/25 04:37:42;;;;;;;;;6.40;5.80;;;;;12.42;87.12;98419.06;5068228;28;8870;-76
2023/10/25 04:40:11;;;;;;;;;8.00;6.00;;;;;12.57;87.17;98422.75;5066795;28;9584;-78
2023/10/25 04:42:40;;;;;;;;;6.80;5.80;;;;;12.92;87.97;98425.53;5066837;28;8959;-77
2023/10/25 04:45:10;;;;;;;;;4.60;4.60;;;;;12.78;86.67;98388.38;5067983;28;8927;-76
2023/10/25 04:47:39;;;;;;;;;10.80;10.80;;;;;12.70;86.02;98389.59;5010566;28;8849;-76
2023/10/25 04:50:09;;;;;;;;;7.80;6.80;;;;;13.10;86.31;98379.75;5048040;28;8845;-76
2023/10/25 04:52:39;;;;;;;;;14.20;14.20;;;;;13.34;86.06;98378.63;5046464;28;8881;-75
2023/10/25 04:55:09;;;;;;;;;4.20;4.20;;;;;13.64;85.62;98369.09;5045353;28;8875;-75
2023/10/25 04:57:38;;;;;;;;;6.40;6.40;;;;;13.94;85.05;98360.53;5050557;28;8837;-77
2023/10/25 05:00:09;;;;;;;;;6.80;4.40;;;;;14.13;84.61;98354.22;5034197;28;9648;-76
2023/10/25 05:02:39;;;;;;;;;5.80;5.20;;;;;14.41;83.34;98354.44;5067658;28;8862;-76
2023/10/25 05:05:09;;;;;;;;;9.00;7.00;;;;;14.54;82.47;98356.38;5066477;28;8990;-75
2023/10/25 05:07:39;;;;;;;;;5.40;5.00;;;;;14.67;81.84;98355.56;5068212;28;8969;-75
2023/10/25 05:10:12;;;;;;;;;5.80;5.80;;;;;14.92;81.68;98369.22;5071125;28;9023;-75
2023/10/25 05:12:42;;;;;;;;;4.00;4.00;;;;;14.94;80.86;98367.34;5074259;28;8858;-78
2023/10/25 05:15:13;;;;;;;;;4.60;2.40;;;;;14.79;80.33;98375.25;5074318;28;8842;-76
2023/10/25 05:17:43;;;;;;;;;6.60;4.80;;;;;14.92;79.78;98363.94;5074422;28;9600;-78
2023/10/25 05:20:14;;;;;;;;;4.40;4.40;;;;;15.02;80.35;98365.13;5072858;28;8834;-76
2023/10/25 05:22:50;;;;;;;;;3.40;3.40;;;;;15.19;80.20;98361.50;4971432;28;8861;-77
2023/10/25 05:25:20;;;;;;;;;4.60;4.60;;;;;15.18;80.01;98350.03;5054418;28;8845;-77
2023/10/25 05:27:49;;;;;;;;;4.80;4.80;;;;;15.20;79.10;98358.72;5058561;28;8857;-77
2023/10/25 05:30:21;;;;;;;;;4.60;4.40;;;;;15.23;79.60;98365.66;5056497;28;8932;-76
2023/10/25 05:32:53;;;;;;;;;3.80;3.80;;;;;15.29;79.58;98367.94;5039482;28;8898;-74
2023/10/25 05:35:23;;;;;;;;;5.20;5.00;;;;;15.28;79.51;98370.66;5018866;28;8845;-77
2023/10/25 05:37:54;;;;;;;;;7.40;6.80;;;;;15.37;79.74;98389.50;5058083;28;8860;-77
2023/10/25 05:40:24;;;;;;;;;8.20;7.00;;;;;15.39;79.18;98386.75;5074450;28;8877;-76
2023/10/25 05:42:57;;;;;;;;;8.00;8.00;;;;;15.36;78.05;98393.09;5038600;28;8846;-75
2023/10/25 05:45:26;;;;;;;;;6.60;5.40;;;;;15.36;79.42;98390.47;5074360;28;8947;-77
2023/10/25 05:47:55;;;;;;;;;7.20;6.40;;;;;15.38;78.87;98395.66;5072799;28;8842;-75
2023/10/25 05:50:26;;;;;;;;;5.20;5.20;;;;;15.38;78.19;98399.16;5072850;28;8850;-75
2023/10/25 05:52:56;;;;;;;;;13.40;9.60;;;;;15.43;78.43;98399.75;5037288;28;8850;-77
2023/10/25 05:55:26;;;;;;;;;9.20;9.00;;;;;15.46;79.22;98396.06;5074028;28;8870;-77
2023/10/25 05:57:55;;;;;;;;;11.20;11.20;;;;;15.53;78.83;98401.81;5074280;28;8962;-78
2023/10/25 06:00:25;;;;;;;;;9.40;9.40;;;;;15.60;79.08;98395.25;5072260;28;8850;-76
2023/10/25 06:02:56;;;;;;;;;10.20;9.00;;;;;15.69;78.58;98399.16;5071597;28;9659;-77
2023/10/25 06:05:26;;;;;;;;;12.80;9.20;;;;;15.71;78.41;98392.81;5072822;28;8873;-78
2023/10/25 06:07:57;;;;;;;;;11.20;8.60;;;;;15.79;78.11;98400.28;5089478;28;8858;-78
2023/10/25 06:10:27;;;;;;;;;9.00;7.00;;;;;15.83;77.60;98407.09;5074149;28;8927;-77
2023/10/25 06:12:58;;;;;;;;;8.80;8.20;;;;;15.88;78.18;98410.34;5074121;28;9719;-77
2023/10/25 06:15:27;;;;;;;;;10.20;10.00;;;;;16.01;78.72;98415.75;5039152;28;8846;-77
2023/10/25 06:17:56;;;;;;;;;11.60;10.00;;;;;16.11;78.74;98410.72;5055930;28;8884;-77
2023/10/25 06:20:25;;;;;;;;;12.00;12.00;;;;;16.11;77.04;98416.03;5073285;28;8854;-78
2023/10/25 06:22:56;;;;;;;;;9.60;8.60;;;;;16.21;77.39;98418.00;5051134;28;8842;-75
2023/10/25 06:25:27;;;;;;;;;9.20;8.00;;;;;16.20;75.13;98420.75;5070402;28;8846;-76
2023/10/25 06:27:57;;;;;;;;;8.60;8.60;;;;;16.19;75.67;98406.66;5068496;28;8827;-77
2023/10/25 06:30:27;;;;;;;;;10.60;10.60;;;;;16.33;76.56;98416.38;5051443;28;8831;-78
2023/10/25 06:32:58;;;;;;;;;9.60;9.00;;;;;16.48;77.05;98408.47;5069399;28;8900;-77
2023/10/25 06:35:28;;;;;;;;;11.00;10.00;;;;;16.59;76.32;98412.13;5052255;28;8876;-76
2023/10/25 06:37:57;;;;;;;;;12.60;12.00;;;;;16.71;75.39;98423.75;5070339;28;8878;-76
2023/10/25 06:40:28;;;;;;;;;9.00;8.00;;;;;16.84;76.02;98418.50;5080302;28;8854;-77
2023/10/25 06:42:57;;;;;;;;;10.80;10.00;;;;;16.89;75.23;98428.81;5070240;28;8969;-78
2023/10/25 06:45:27;;;;;;;;;9.80;7.80;;;;;16.92;73.03;98418.00;5069486;28;8956;-76
2023/10/25 06:47:56;;;;;;;;;7.00;7.00;;;;;16.99;72.97;98414.00;5070550;28;8984;-77
2023/10/25 06:50:26;;;;;;;;;8.00;6.00;;;;;17.05;72.78;98410.94;5069989;28;8862;-78
2023/10/25 06:52:55;;;;;;;;;7.40;7.20;;;;;17.17;73.38;98402.16;5068723;28;8874;-75
2023/10/25 06:55:25;;;;;;;;;6.40;6.00;;;;;17.22;72.57;98406.31;5068552;28;8858;-77
2023/10/25 06:57:56;;;;;;;;;5.40;5.40;;;;;17.13;68.64;98402.44;5033851;28;8972;-78
2023/10/25 07:00:27;;;;;;;;;5.60;4.80;;;;;16.72;67.81;98408.66;5069479;28;8943;-76
2023/10/25 07:03:02;;;;;;;;;6.40;4.80;;;;;16.94;65.13;98413.44;4998502;28;8878;-76
2023/10/25 07:05:32;;;;;;;;;4.60;4.60;;;;;17.03;68.18;98409.34;5049902;28;8868;-76
2023/10/25 07:08:02;;;;;;;;;8.20;6.00;;;;;16.96;63.98;98406.22;5015129;28;8993;-75
2023/10/25 07:10:31;;;;;;;;;5.40;3.80;;;;;17.04;67.17;98419.00;5049965;28;8860;-76
2023/10/25 07:13:08;;;;;;;;;7.00;7.00;;;;;16.85;63.38;98414.88;5055933;28;8896;-78
2023/10/25 07:15:37;;;;;;;;;5.40;5.40;;;;;17.07;65.65;98426.75;5069847;28;9647;-76
2023/10/25 07:18:06;;;;;;;;;6.20;5.60;;;;;17.23;65.98;98426.59;5035296;28;8898;-77
2023/10/25 07:20:35;;;;;;;;;9.60;8.60;;;;;17.44;66.08;98440.28;5069635;28;8862;-76
2023/10/25 07:23:04;;;;;;;;;7.20;5.80;;;;;17.45;64.99;98440.19;5069193;28;8859;-76
2023/10/25 07:25:34;;;;;;;;;6.40;4.80;;;;;17.65;63.83;98438.84;5069258;28;8850;-76
2023/10/25 07:28:02;;;;;;;;;6.00;5.40;;;;;17.76;64.00;98436.31;5069919;28;8854;-76
2023/10/25 07:30:35;;;;;;;;;0.00;0.00;;;;;17.76;65.29;98440.78;5069790;28;8850;-76
2023/10/25 07:33:04;;;;;;;;;3.00;3.00;;;;;18.02;64.86;98446.09;5066891;28;9588;-77
2023/10/25 07:35:33;;;;;;;;;7.40;7.40;;;;;18.11;61.43;98441.00;5067977;28;8846;-77
2023/10/25 07:38:02;;;;;;;;;6.60;6.60;;;;;18.25;61.96;98439.19;5070900;28;8842;-77
2023/10/25 07:40:31;;;;;;;;;8.20;4.60;;;;;18.30;59.52;98440.56;5069635;28;9020;-76
2023/10/25 07:43:00;;;;;;;;;2.00;2.00;;;;;18.43;60.60;98445.03;5069643;28;8966;-77
2023/10/25 07:45:29;;;;;;;;;4.60;3.00;;;;;18.57;59.40;98444.88;5069512;28;8881;-76
2023/10/25 07:47:59;;;;;;;;;3.60;3.60;;;;;18.77;61.90;98440.78;5068196;28;8859;-75
2023/10/25 07:50:29;;;;;;;;;2.80;2.40;;;;;18.71;58.16;98447.41;5069173;28;9039;-75
2023/10/25 07:52:57;;;;;;;;;3.60;3.60;;;;;18.68;58.72;98444.94;5067956;28;9005;-76
2023/10/25 07:55:26;;;;;;;;;4.00;4.00;;;;;18.77;57.89;98447.94;5069106;28;8842;-78
2023/10/25 07:58:15;;;;;;;;;5.40;5.40;;;;;18.93;59.02;98445.88;5068794;28;8928;-75
2023/10/25 08:00:56;;;;;;;;;4.60;4.40;;;;;18.94;55.87;98447.56;5068142;28;8889;-76
2023/10/25 08:03:28;;;;;;;;;8.80;8.80;;;;;19.11;56.55;98447.19;5068790;28;8961;-77
2023/10/25 08:05:58;;;;;;;;;3.20;3.20;;;;;18.94;53.50;98455.56;5068619;28;8850;-75
2023/10/25 08:08:27;;;;;;;;;3.40;3.40;;;;;19.00;56.39;98456.94;5068564;28;8870;-76
2023/10/25 08:11:01;;;;;;;;;5.00;4.00;;;;;18.85;51.70;98461.56;5068615;28;9658;-76
2023/10/25 08:13:30;;;;;;;;;4.00;4.00;;;;;19.00;56.70;98468.41;5066851;28;10113;-77
2023/10/25 08:16:00;;;;;;;;;5.40;5.00;;;;;19.12;55.42;98467.53;5068364;28;8889;-76
2023/10/25 08:18:32;;;;;;;;;5.00;4.00;;;;;19.18;53.87;98471.56;5068517;28;8916;-76
2023/10/25 08:21:02;;;;;;;;;5.20;5.20;;;;;19.29;54.87;98471.63;5068340;28;8907;-76
2023/10/25 08:23:31;;;;;;;;;4.00;3.80;;;;;19.27;54.38;98470.88;5068307;28;8847;-75
2023/10/25 08:26:01;;;;;;;;;4.40;4.40;;;;;19.39;52.86;98473.59;5068016;28;8846;-75
2023/10/25 08:28:30;;;;;;;;;7.00;5.40;;;;;19.50;55.53;98466.50;5033493;28;8847;-75
2023/10/25 08:30:59;;;;;;;;;4.80;4.80;;;;;19.60;55.86;98482.66;5016922;28;9004;-76
2023/10/25 08:33:28;;;;;;;;;7.60;6.00;;;;;19.81;56.01;98474.00;5033495;28;8880;-76
2023/10/25 08:36:05;;;;;;;;;5.40;4.20;;;;;19.66;50.72;98476.88;5033287;28;9715;-77
2023/10/25 08:38:35;;;;;;;;;3.00;3.00;;;;;19.61;51.97;98478.19;5066547;28;8971;-76
2023/10/25 08:41:05;;;;;;;;;3.00;2.60;;;;;19.60;51.82;98489.81;5068381;28;9672;-76
2023/10/25 08:43:35;;;;;;;;;5.40;5.00;;;;;19.56;55.55;98480.38;5067970;28;8843;-76
2023/10/25 08:46:05;;;;;;;;;5.40;5.40;;;;;19.68;54.83;98490.94;5067954;28;8979;-76
2023/10/25 08:48:34;;;;;;;;;5.60;5.00;;;;;19.71;54.96;98490.72;5068146;28;8858;-76
2023/10/25 08:51:06;;;;;;;;;5.20;4.40;;;;;19.73;55.17;98490.59;5068432;28;8865;-77
2023/10/25 08:53:36;;;;;;;;;10.20;10.00;;;;;19.68;52.10;98492.75;5066598;28;9081;-77
2023/10/25 08:56:05;;;;;;;;;4.80;4.80;;;;;19.63;52.45;98497.56;5067853;28;9048;-76
2023/10/25 08:58:34;;;;;;;;;6.00;4.80;;;;;19.67;53.14;98493.75;5068334;28;8865;-76
2023/10/25 09:01:04;;;;;;;;;4.00;4.00;;;;;19.68;51.51;98490.94;5066823;28;8846;-76
2023/10/25 09:03:42;;;;;;;;;6.00;6.00;;;;;20.03;55.68;98491.91;5070527;28;8878;-76
2023/10/25 09:06:23;;;;;;;;;3.80;3.80;;;;;19.70;51.13;98496.16;5068345;28;8991;-75
2023/10/25 09:08:59;;;;;;;;;4.80;4.80;;;;;19.94;50.70;98492.59;5067784;28;8874;-76
2023/10/25 09:11:38;;;;;;;;;6.00;4.80;;;;;20.15;51.41;98506.94;5068521;28;8951;-76
2023/10/25 09:14:09;;;;;;;;;4.00;4.00;;;;;19.98;48.63;98512.72;5067836;28;8874;-76
2023/10/25 09:16:42;;;;;;;;;4.60;4.60;;;;;19.77;46.75;98513.38;5001497;28;8862;-76
2023/10/25 09:19:11;;;;;;;;;5.40;5.00;;;;;19.60;45.72;98511.16;5032690;28;8866;-76
2023/10/25 09:21:41;;;;;;;;;4.20;4.20;;;;;19.42;46.41;98508.84;5068174;28;9691;-75
2023/10/25 09:24:10;;;;;;;;;5.00;4.00;;;;;19.31;47.63;98507.00;5067880;28;8851;-76
2023/10/25 09:26:40;;;;;;;;;5.00;2.60;;;;;19.07;47.03;98509.63;5066494;28;8846;-76
2023/10/25 09:29:11;;;;;;;;;6.80;6.20;;;;;19.22;46.83;98512.16;5032631;28;8996;-76
2023/10/25 09:31:40;;;;;;;;;3.60;2.80;;;;;19.15;48.32;98506.41;5067292;28;8839;-76
2023/10/25 09:34:12;;;;;;;;;6.20;4.00;;;;;19.07;46.46;98504.31;5066340;28;8966;-75
2023/10/25 09:36:43;;;;;;;;;3.20;3.20;;;;;18.88;46.30;98495.97;5066508;28;8939;-78
2023/10/25 09:39:12;;;;;;;;;2.20;2.20;;;;;18.98;44.76;98502.31;5066392;28;9001;-76
2023/10/25 09:41:43;;;;;;;;;4.20;2.60;;;;;18.76;43.99;98497.63;5067628;28;8960;-77
2023/10/25 09:44:18;;;;;;;;;2.40;2.00;;;;;18.74;45.95;98499.56;5033463;28;8903;-76
2023/10/25 09:46:48;;;;;;;;;3.20;2.60;;;;;18.74;44.90;98494.25;5066784;28;8842;-75
2023/10/25 09:49:18;;;;;;;;;4.00;2.60;;;;;19.08;46.74;98492.72;5067387;28;9584;-75
2023/10/25 09:51:59;;;;;;;;;5.40;3.00;;;;;18.97;44.31;98497.97;5067464;28;8854;-76
2023/10/25 09:54:33;;;;;;;;;3.00;3.00;;;;;19.02;44.61;98489.63;5067645;28;8881;-76
2023/10/25 09:57:04;;;;;;;;;5.60;3.20;;;;;19.25;44.39;98498.59;5067470;28;9673;-76
2023/10/25 09:59:34;;;;;;;;;1.00;1.00;;;;;19.23;42.43;98484.53;5071088;28;8835;-76
2023/10/25 10:02:08;;;;;;;;;2.20;2.20;;;;;19.31;39.52;98476.84;5071443;28;9036;-74
2023/10/25 10:04:48;;;;;;;;;4.60;4.60;;;;;19.47;38.97;98473.88;5070009;28;9725;-76
2023/10/25 10:07:33;;;;;;;;;3.00;0.00;;;;;19.43;37.73;98467.06;5037637;28;8863;-78
2023/10/25 10:10:09;;;;;;;;;1.00;1.00;;;;;19.30;37.17;98481.28;5071053;28;8877;-76
2023/10/25 10:12:38;;;;;;;;;2.40;1.20;;;;;19.54;37.71;98479.59;5052083;28;8819;-76
2023/10/25 10:15:08;;;;;;;;;1.60;1.40;;;;;19.48;38.70;98470.22;5070836;28;8859;-77
2023/10/25 10:17:42;;;;;;;;;3.60;3.60;;;;;19.68;36.82;98466.94;5070115;28;8965;-75
2023/10/25 10:20:24;;;;;;;;;1.00;1.00;;;;;19.32;36.33;98473.19;5073512;28;9604;-77
2023/10/25 10:23:05;;;;;;;;;0.00;0.00;;;;;19.11;36.67;98455.16;5071152;28;8838;-76
2023/10/25 10:25:44;;;;;;;;;0.80;0.40;;;;;19.25;36.30;98454.16;5071092;28;8862;-75
2023/10/25 10:28:13;;;;;;;;;0.00;0.00;;;;;19.46;36.48;98445.50;5036199;28;8851;-77
2023/10/25 10:30:42;;;;;;;;;1.40;1.00;;;;;19.66;36.22;98458.19;5087333;28;8862;-78
2023/10/25 10:33:13;;;;;;;;;3.80;3.80;;;;;19.72;37.83;98448.88;5035307;28;8862;-78
2023/10/25 10:35:47;;;;;;;;;1.00;1.00;;;;;19.77;38.13;98464.56;5070676;28;8862;-75
2023/10/25 10:38:18;;;;;;;;;1.40;1.40;;;;;19.79;37.98;98470.63;5069260;28;8961;-75
2023/10/25 10:40:50;;;;;;;;;1.00;1.00;;;;;19.68;38.16;98466.09;5070495;28;8870;-75
2023/10/25 10:43:20;;;;;;;;;1.40;1.20;;;;;20.04;38.21;98459.75;5069337;28;9540;-78
2023/10/25 10:45:53;;;;;;;;;2.00;2.00;;;;;19.91;38.56;98467.00;5069824;28;8846;-76
2023/10/25 10:48:31;;;;;;;;;2.20;2.20;;;;;20.14;39.07;98467.91;5069754;28;9616;-76
2023/10/25 10:51:01;;;;;;;;;1.00;1.00;;;;;20.01;39.83;98457.31;5067295;28;8848;-75
2023/10/25 10:53:31;;;;;;;;;1.00;1.00;;;;;19.99;39.67;98466.41;5067484;28;8879;-76
2023/10/25 10:56:00;;;;;;;;;2.60;1.40;;;;;19.99;40.23;98469.06;5068998;28;8880;-77
2023/10/25 10:58:29;;;;;;;;;2.60;2.60;;;;;20.07;40.03;98467.50;5068903;28;8844;-77
2023/10/25 11:00:59;;;;;;;;;3.40;2.40;;;;;20.13;39.73;98458.19;4978811;28;8846;-77
2023/10/25 11:03:29;;;;;;;;;1.00;1.00;;;;;19.86;40.31;98459.34;5027959;28;8838;-76
2023/10/25 11:05:58;;;;;;;;;1.00;1.00;;;;;20.00;40.34;98476.13;5027277;28;8838;-77
2023/10/25 11:08:28;;;;;;;;;3.00;1.60;;;;;20.06;40.30;98467.63;5027063;28;8860;-77
2023/10/25 11:10:58;;;;;;;;;3.80;3.80;;;;;20.13;39.72;98462.69;5011271;28;8842;-78
2023/10/25 11:13:28;;;;;;;;;2.00;2.00;;;;;20.31;39.81;98460.41;4988153;28;8846;-76
2023/10/25 11:16:06;;;;;;;;;1.60;1.60;;;;;20.36;38.88;98463.56;4955804;28;8888;-78
2023/10/25 11:18:36;;;;;;;;;2.80;1.20;;;;;19.98;39.08;98475.38;4991096;28;8862;-76
2023/10/25 11:21:05;;;;;;;;;4.00;2.00;;;;;20.02;39.15;98460.84;4988633;28;8846;-76
2023/10/25 11:23:35;;;;;;;;;1.20;1.20;;;;;20.00;39.11;98460.09;4955973;28;8842;-77
2023/10/25 11:26:05;;;;;;;;;0.00;0.00;;;;;19.90;38.99;98463.47;4987384;28;8850;-79
2023/10/25 11:28:34;;;;;;;;;1.00;1.00;;;;;19.85;38.86;98456.81;4947680;28;8852;-75
2023/10/25 11:31:04;;;;;;;;;2.00;2.00;;;;;19.70;39.28;98458.81;5008225;28;8888;-77
2023/10/25 11:33:44;;;;;;;;;1.00;1.00;;;;;20.12;39.57;98455.63;5046748;28;8873;-78
2023/10/25 11:36:13;;;;;;;;;2.00;1.00;;;;;20.39;39.21;98448.16;4997143;28;9635;-78
2023/10/25 11:38:44;;;;;;;;;1.80;1.80;;;;;20.53;38.91;98441.72;5046707;28;8950;-78
2023/10/25 11:41:14;;;;;;;;;1.00;1.00;;;;;20.80;39.20;98445.81;5046325;28;8849;-78
2023/10/25 11:43:43;;;;;;;;;1.00;1.00;;;;;20.51;38.50;98448.16;5049104;28;8853;-75
2023/10/25 11:46:12;;;;;;;;;1.40;1.20;;;;;20.56;39.46;98436.13;5067805;28;8981;-78
2023/10/25 11:48:40;;;;;;;;;1.60;1.60;;;;;21.02;39.86;98434.25;5069166;28;8870;-77
2023/10/25 11:51:09;;;;;;;;;2.80;2.80;;;;;21.11;37.53;98438.84;5068895;28;8874;-77